Last 7 Days

Williams 2

Hourly Data | America/Los_Angeles
as of 12/1/21 12:52 AM PST
Date & Time Temp (°F) RH (%) Dew Pt (°F) Wind Spd (mph) Wind Dir (°) Wind Gust (mph) Wind Gst Dir (°) Latest Rain (In) Daily Rain (In) Daily Min Temp (°F) Daily Max Temp (°F)
12/1/21 - 0000 43.0 89 40.0 3.7 NNW | 347 9.1 NNW | 333 0.00 0.00 40.8 68.6
11/30/21 - 2300 44.1 89 41.0 4.2 NNW | 344 10.1 NNW | 337 0.00 0.00 40.8 68.6
11/30/21 - 2200 45.4 88 42.0 4.4 NNW | 345 8.4 NNW | 346 0.00 0.00 40.8 68.6
11/30/21 - 2100 46.6 87 43.1 4.6 NNW | 338 8.8 NNW | 328 0.00 0.00 40.8 68.6
11/30/21 - 2000 48.2 86 44.2 3.1 NNW | 344 8.4 N | 349 0.00 0.00 40.8 68.6
11/30/21 - 1900 50.0 85 45.6 2.2 NNW | 346 7.4 NNW | 340 0.00 0.00 40.8 68.6
11/30/21 - 1800 53.5 80 47.4 0.8 N | 1 4.4 N | 5 0.00 0.00 40.8 68.6
11/30/21 - 1700 60.7 66 49.3 0.6 SE | 142 5.1 SSW | 192 0.00 0.00 40.8 68.6
11/30/21 - 1600 67.0 53 49.2 2.5 S | 170 6.4 S | 169 0.00 0.00 40.8 68.6
11/30/21 - 1500 67.9 52 49.5 2.7 S | 181 5.8 S | 186 0.00 0.00 40.8 68.6
11/30/21 - 1400 66.8 55 50.1 3.1 SSE | 162 6.8 ESE | 122 0.00 0.00 40.8 67.7
11/30/21 - 1300 64.4 59 49.6 1.6 S | 187 5.8 SSE | 165 0.00 0.00 40.8 66.0
11/30/21 - 1200 61.7 64 49.7 1.2 SSE | 164 5.4 SSE | 167 0.00 0.00 40.8 63.1
11/30/21 - 1100 59.2 67 48.2 0.1 S | 174 4.8 SSE | 168 0.00 0.00 40.8 60.7
11/30/21 - 1000 55.3 69 45.3 0.0 N | 0 0.0 NNE | 25 0.00 0.00 40.8 57.9
11/30/21 - 0900 46.6 82 41.6 0.0 NNW | 336 3.8 NNW | 327 0.00 0.00 40.8 50.2
11/30/21 - 0800 42.0 88 38.6 0.4 NNW | 331 6.1 NW | 313 0.00 0.00 40.8 49.5
11/30/21 - 0700 42.8 88 39.5 3.3 NNW | 342 9.8 N | 3 0.00 0.00 40.8 49.5
11/30/21 - 0600 41.8 90 39.0 2.4 NNW | 332 9.5 NNW | 330 0.00 0.00 40.8 49.5
11/30/21 - 0500 42.8 89 39.7 1.8 NNW | 344 7.4 NNW | 333 0.00 0.00 41.6 49.5
11/30/21 - 0400 44.5 88 41.2 2.6 NNW | 331 7.8 NNW | 328 0.00 0.00 43.6 49.5
11/30/21 - 0300 45.2 88 41.8 2.3 NNW | 339 6.1 N | 352 0.00 0.00 44.1 49.5
11/30/21 - 0200 47.2 86 43.3 5.1 NNW | 337 10.8 NNW | 344 0.00 0.00 45.6 49.5
11/30/21 - 0100 48.8 85 44.5 6.1 N | 349 10.5 NNW | 338 0.00 0.00 47.8 49.5
11/30/21 - 0000 48.2 87 44.5 6.2 NNW | 343 11.1 NNW | 345 0.00 0.00 41.9 68.9
11/29/21 - 2300 47.8 88 44.4 6.3 NNW | 345 10.5 N | 11 0.00 0.00 41.9 68.9
11/29/21 - 2200 49.3 87 45.6 5.9 NNW | 347 10.5 NW | 325 0.00 0.00 41.9 68.9
11/29/21 - 2100 49.0 88 45.6 4.4 NNW | 347 8.8 NNW | 344 0.00 0.00 41.9 68.9
11/29/21 - 2000 50.1 87 46.4 2.2 NNW | 340 6.4 NNW | 330 0.00 0.00 41.9 68.9
11/29/21 - 1900 52.2 86 48.1 2.8 NNW | 345 7.4 N | 349 0.00 0.00 41.9 68.9
11/29/21 - 1800 54.6 82 49.4 2.4 N | 2 4.8 N | 4 0.00 0.00 41.9 68.9
11/29/21 - 1700 62.3 69 52.0 0.7 NE | 37 4.4 NNE | 24 0.00 0.00 41.9 68.9
11/29/21 - 1600 67.3 60 53.0 1.5 SSE | 154 5.1 SSE | 157 0.00 0.00 41.9 68.9
11/29/21 - 1500 68.2 57 52.4 2.6 S | 188 6.1 SSW | 208 0.00 0.00 41.9 68.9
11/29/21 - 1400 66.8 58 51.8 2.1 SSW | 198 5.4 SSE | 157 0.00 0.00 41.9 68.0
11/29/21 - 1300 64.3 61 50.6 2.4 SSW | 192 6.4 SSW | 206 0.00 0.00 41.9 65.6
11/29/21 - 1200 61.6 65 49.6 2.2 S | 185 6.1 S | 174 0.00 0.00 41.9 63.2
11/29/21 - 1100 59.4 67 48.4 1.0 S | 177 5.1 SSE | 168 0.00 0.00 41.9 61.1
11/29/21 - 1000 55.8 71 46.7 0.0 N | 0 0.0 SSW | 212 0.00 0.00 41.9 58.0
11/29/21 - 0900 50.1 80 44.2 1.1 NNE | 12 6.4 N | 7 0.00 0.00 41.9 53.0
11/29/21 - 0800 44.1 88 40.8 4.7 NNW | 346 10.8 NNW | 348 0.00 0.00 41.9 48.8
11/29/21 - 0700 43.0 90 40.1 4.2 NNW | 342 9.1 NNW | 345 0.00 0.00 41.9 48.8
11/29/21 - 0600 43.2 88 39.8 3.0 NNW | 328 7.4 NNW | 348 0.00 0.00 42.0 48.8
11/29/21 - 0500 45.0 87 41.4 4.4 NNW | 338 9.5 NNW | 331 0.00 0.00 44.4 48.8
11/29/21 - 0400 46.6 85 42.3 3.4 NNW | 343 7.8 N | 349 0.00 0.00 45.0 48.8
11/29/21 - 0300 46.4 86 42.6 5.2 NNW | 345 9.5 NNW | 344 0.00 0.00 45.2 48.8
11/29/21 - 0200 46.4 86 42.6 4.7 NNW | 332 9.1 NNW | 343 0.00 0.00 45.2 48.8
11/29/21 - 0100 48.5 84 44.0 5.3 N | 351 10.5 NNW | 336 0.00 0.00 48.2 48.8
11/29/21 - 0000 47.7 86 43.9 5.5 NNW | 348 10.1 N | 353 0.00 0.00 42.1 67.9
11/28/21 - 2300 48.5 85 44.3 3.4 NNW | 344 7.8 NNW | 338 0.00 0.00 42.1 67.9
11/28/21 - 2200 49.3 85 45.0 4.1 NNW | 342 8.8 N | 1 0.00 0.00 42.1 67.9
11/28/21 - 2100 49.8 85 45.4 4.6 NNW | 341 8.1 NNW | 348 0.00 0.00 42.1 67.9
11/28/21 - 2000 50.6 84 46.0 3.2 NNW | 335 5.8 NNW | 340 0.00 0.00 42.1 67.9
11/28/21 - 1900 52.3 82 47.1 2.5 N | 351 5.8 NNW | 334 0.00 0.00 42.1 67.9
11/28/21 - 1800 54.3 80 48.2 0.3 N | 1 3.4 N | 4 0.00 0.00 42.1 67.9
11/28/21 - 1700 62.7 63 49.9 1.1 SSE | 165 4.4 SE | 126 0.00 0.00 42.1 67.9
11/28/21 - 1600 67.3 53 49.7 2.8 SSW | 201 6.4 SW | 218 0.00 0.00 42.1 67.9
11/28/21 - 1500 67.4 53 49.6 3.4 SSW | 206 6.8 SSW | 212 0.00 0.00 42.1 67.9
11/28/21 - 1400 67.0 52 48.7 3.8 SSW | 198 8.8 SW | 226 0.00 0.00 42.1 67.6
11/28/21 - 1300 64.9 55 48.3 3.6 SSW | 211 7.1 SSW | 195 0.00 0.00 42.1 66.2
11/28/21 - 1200 61.2 61 47.5 2.4 SSW | 202 6.8 S | 181 0.00 0.00 42.1 62.8
11/28/21 - 1100 58.1 65 46.2 2.3 S | 186 6.8 S | 176 0.00 0.00 42.1 59.8
11/28/21 - 1000 54.9 67 44.0 0.4 S | 174 3.4 S | 179 0.00 0.00 42.1 56.7
11/28/21 - 0900 48.6 78 42.1 0.0 N | 0 0.0 SE | 124 0.00 0.00 42.1 52.6
11/28/21 - 0800 43.0 86 39.0 0.3 NW | 317 5.1 NNW | 329 0.00 0.00 42.1 47.5
11/28/21 - 0700 44.5 84 40.0 4.4 NNW | 332 9.1 NNW | 339 0.00 0.00 43.4 47.5
11/28/21 - 0600 44.4 85 40.1 3.8 NNW | 330 7.8 NNW | 334 0.00 0.00 43.4 47.5
11/28/21 - 0500 46.0 83 41.1 6.1 NNW | 344 10.1 N | 350 0.00 0.00 44.8 47.5
11/28/21 - 0400 46.0 84 41.3 5.7 NNW | 339 9.5 NNW | 340 0.00 0.00 44.8 47.4
11/28/21 - 0300 46.0 85 41.7 5.8 NNW | 347 8.8 NNW | 336 0.00 0.00 44.8 47.2
11/28/21 - 0200 45.5 86 41.6 5.8 NNW | 340 8.8 NNW | 342 0.00 0.00 45.0 47.2
11/28/21 - 0100 46.4 85 42.1 3.7 NNW | 340 7.8 NNW | 339 0.00 0.00 45.6 47.2
11/28/21 - 0000 48.9 81 43.3 5.4 NNW | 337 10.5 N | 351 0.00 0.00 39.0 67.1
11/27/21 - 2300 49.8 80 43.8 6.3 NNW | 347 10.8 NW | 320 0.00 0.00 39.0 67.1
11/27/21 - 2200 50.6 78 44.2 6.2 NNW | 348 10.1 N | 354 0.00 0.00 39.0 67.1
11/27/21 - 2100 50.1 80 44.1 5.4 NNW | 342 9.1 NNW | 333 0.00 0.00 39.0 67.1
11/27/21 - 2000 51.2 78 44.6 4.5 NNW | 344 7.4 NNW | 338 0.00 0.00 39.0 67.1
11/27/21 - 1900 51.9 78 45.3 3.6 NNW | 345 6.4 NNW | 340 0.00 0.00 39.0 67.1
11/27/21 - 1800 53.8 75 46.2 1.3 N | 355 4.1 N | 1 0.00 0.00 39.0 67.1
11/27/21 - 1700 59.5 65 47.5 0.6 SE | 134 3.4 SE | 130 0.00 0.00 39.0 67.1
11/27/21 - 1600 64.9 51 46.4 2.1 SSE | 156 6.1 SSW | 196 0.00 0.00 39.0 67.1
11/27/21 - 1500 66.5 47 45.7 2.8 S | 172 6.1 S | 182 0.00 0.00 39.0 67.1
11/27/21 - 1400 65.9 47 45.0 3.1 S | 176 7.4 SSE | 155 0.00 0.00 39.0 66.4
11/27/21 - 1300 64.1 50 44.9 3.1 SSW | 197 7.1 S | 186 0.00 0.00 39.0 65.5
11/27/21 - 1200 61.9 53 44.5 2.6 S | 178 6.8 S | 180 0.00 0.00 39.0 63.3
11/27/21 - 1100 60.7 51 42.7 2.5 S | 182 5.8 SSW | 203 0.00 0.00 39.0 61.4
11/27/21 - 1000 56.8 57 41.5 0.3 SSE | 155 3.1 SSE | 168 0.00 0.00 39.0 59.7
11/27/21 - 0900 47.9 75 40.3 1.4 NNW | 333 5.8 NNW | 332 0.00 0.00 39.0 54.4
11/27/21 - 0800 40.4 87 36.8 0.4 N | 349 4.1 NW | 321 0.00 0.00 39.0 46.8
11/27/21 - 0700 40.0 86 36.1 0.2 ESE | 116 2.7 ESE | 119 0.00 0.00 39.3 46.8
11/27/21 - 0600 41.9 84 37.3 1.1 N | 351 3.8 N | 351 0.00 0.00 41.6 46.8
11/27/21 - 0500 42.6 82 37.7 2.0 NNW | 346 6.4 NNW | 344 0.00 0.00 41.9 46.8
11/27/21 - 0400 43.5 82 38.2 0.5 NNW | 346 4.4 N | 350 0.00 0.00 42.5 46.8
11/27/21 - 0300 45.1 78 38.8 2.2 N | 350 7.1 NNW | 346 0.00 0.00 44.1 46.8
11/27/21 - 0200 45.1 80 39.2 0.7 NW | 319 4.8 NNW | 344 0.00 0.00 44.1 46.8
11/27/21 - 0100 46.2 78 39.9 2.9 NNW | 332 7.1 NNW | 348 0.00 0.00 45.8 46.8
11/27/21 - 0000 48.8 72 40.2 3.4 NNW | 338 7.4 N | 1 0.00 0.00 36.7 66.8
11/26/21 - 2300 49.6 72 40.8 5.6 NNW | 343 9.5 NNW | 347 0.00 0.00 36.7 66.8
11/26/21 - 2200 49.0 75 41.4 4.9 NNW | 339 7.8 NNW | 348 0.00 0.00 36.7 66.8
11/26/21 - 2100 49.6 75 42.1 4.8 NNW | 344 8.1 NNW | 340 0.00 0.00 36.7 66.8
11/26/21 - 2000 49.6 75 42.2 2.6 NNW | 336 6.1 NNW | 327 0.00 0.00 36.7 66.8
11/26/21 - 1900 51.1 75 43.4 2.4 N | 355 6.8 NW | 321 0.00 0.00 36.7 66.8
11/26/21 - 1800 53.9 73 45.4 1.2 N | 352 5.8 NNW | 340 0.00 0.00 36.7 66.8
11/26/21 - 1700 58.8 64 46.4 1.1 N | 4 4.1 N | 8 0.00 0.00 36.7 66.8
11/26/21 - 1600 64.0 47 43.6 1.1 SSE | 168 4.1 S | 170 0.00 0.00 36.7 66.8
11/26/21 - 1500 65.8 43 42.8 2.9 S | 172 5.4 SSW | 199 0.00 0.00 36.7 66.8
11/26/21 - 1400 64.5 46 43.6 2.9 SSE | 156 6.1 S | 170 0.00 0.00 36.7 65.7
11/26/21 - 1300 62.5 49 43.2 2.6 SSE | 155 6.1 S | 171 0.00 0.00 36.7 63.7
11/26/21 - 1200 60.3 50 41.6 2.3 S | 174 5.8 SSE | 161 0.00 0.00 36.7 61.5
11/26/21 - 1100 57.9 51 40.0 1.0 SE | 134 4.4 SE | 140 0.00 0.00 36.7 59.1
11/26/21 - 1000 53.7 57 38.9 1.3 SSE | 162 4.4 SE | 130 0.00 0.00 36.7 55.7
11/26/21 - 0900 46.8 70 37.4 0.7 N | 357 5.8 NNW | 346 0.00 0.00 36.7 50.1
11/26/21 - 0800 39.0 83 34.3 2.8 N | 349 9.5 NNW | 329 0.00 0.00 36.7 44.8
11/26/21 - 0700 38.2 84 33.6 0.7 SE | 132 4.4 SE | 133 0.00 0.00 36.7 44.8
11/26/21 - 0600 41.8 78 35.4 2.7 NNW | 342 6.4 NNW | 342 0.00 0.00 40.7 44.8
11/26/21 - 0500 42.0 79 35.9 4.0 NNW | 343 8.4 NW | 323 0.00 0.00 41.2 44.8
11/26/21 - 0400 42.4 80 36.7 1.0 NNW | 342 6.1 NNW | 329 0.00 0.00 41.8 44.8
11/26/21 - 0300 43.6 77 37.0 2.2 NNW | 331 8.1 NNW | 341 0.00 0.00 43.0 44.8
11/26/21 - 0200 43.9 77 37.2 2.8 NNW | 328 7.1 NNW | 338 0.00 0.00 43.1 44.8
11/26/21 - 0100 43.8 77 37.2 2.5 NNW | 331 7.4 NNW | 328 0.00 0.00 43.1 44.8
11/26/21 - 0000 45.8 72 37.2 4.2 NNW | 336 8.8 NW | 316 0.00 0.00 33.2 66.3
11/25/21 - 2300 45.1 74 37.5 5.5 NNW | 343 9.8 NNW | 338 0.00 0.00 33.2 66.3
11/25/21 - 2200 44.5 76 37.4 2.7 NNW | 337 7.1 NNW | 332 0.00 0.00 33.2 66.3
11/25/21 - 2100 44.6 75 37.3 2.9 NNW | 338 8.1 N | 349 0.00 0.00 33.2 66.3
11/25/21 - 2000 44.0 77 37.2 3.1 NNW | 340 8.1 NNW | 332 0.00 0.00 33.2 66.3
11/25/21 - 1900 45.0 77 38.2 2.3 N | 350 8.4 NNW | 335 0.00 0.00 33.2 66.3
11/25/21 - 1800 47.3 75 39.8 0.2 SSE | 155 2.7 S | 178 0.00 0.00 33.2 66.3
11/25/21 - 1700 57.9 50 38.9 0.3 SW | 217 4.1 SSW | 208 0.00 0.00 33.2 66.3
11/25/21 - 1600 63.9 35 35.6 2.7 SW | 216 6.1 SSW | 201 0.00 0.00 33.2 66.3
11/25/21 - 1500 65.5 32 34.7 2.8 SW | 218 6.8 SSW | 198 0.00 0.00 33.2 66.3
11/25/21 - 1400 64.3 33 34.2 2.7 S | 176 7.8 WSW | 256 0.00 0.00 33.2 65.3
11/25/21 - 1300 62.2 34 33.6 4.1 S | 172 9.1 SSE | 158 0.00 0.00 33.2 63.2
11/25/21 - 1200 59.7 38 34.0 2.1 SSW | 195 7.1 S | 173 0.00 0.00 33.2 61.8
11/25/21 - 1100 55.3 50 36.9 2.3 SSW | 202 6.1 SW | 230 0.00 0.00 33.2 57.5
11/25/21 - 1000 49.9 59 36.0 1.0 SSE | 160 4.1 SSE | 163 0.00 0.00 33.2 52.4
11/25/21 - 0900 41.5 73 33.5 2.0 NNW | 340 6.8 N | 352 0.00 0.00 33.2 45.4
11/25/21 - 0800 36.6 81 31.2 2.3 NNW | 344 7.8 N | 354 0.00 0.00 33.2 39.9
11/25/21 - 0700 35.4 83 30.7 2.7 NNW | 341 7.8 NNW | 348 0.00 0.00 33.2 39.9
11/25/21 - 0600 35.3 83 30.8 2.1 NNW | 343 8.8 N | 352 0.00 0.00 33.2 39.9
11/25/21 - 0500 35.0 85 30.9 1.0 NNW | 348 4.4 NW | 320 0.00 0.00 33.2 39.9
11/25/21 - 0400 34.1 86 30.2 0.1 N | 353 2.7 ENE | 63 0.00 0.00 33.2 39.9
11/25/21 - 0300 37.2 80 31.5 1.0 NNW | 348 5.8 N | 352 0.00 0.00 35.7 39.9
11/25/21 - 0200 37.9 79 32.1 0.8 N | 358 4.1 N | 7 0.00 0.00 36.3 39.9
11/25/21 - 0100 37.9 80 32.2 0.6 N | 357 4.4 NNW | 348 0.00 0.00 37.0 39.9
11/25/21 - 0000 39.5 76 32.5 0.6 N | 6 4.8 NNW | 327 0.00 0.00 38.1 68.4
11/24/21 - 2300 41.8 71 33.1 1.1 N | 6 5.1 NNE | 23 0.00 0.00 41.0 68.4
11/24/21 - 2200 43.3 67 33.2 2.7 N | 349 7.1 NNW | 344 0.00 0.00 42.2 68.4
11/24/21 - 2100 44.6 66 34.1 2.4 N | 350 6.1 NNW | 340 0.00 0.00 43.8 68.4
11/24/21 - 2000 46.0 65 35.1 2.7 N | 4 6.8 NNW | 335 0.00 0.00 45.1 68.4
11/24/21 - 1900 47.8 62 35.6 2.3 N | 356 5.8 NW | 325 0.00 0.00 45.7 68.4
11/24/21 - 1800 51.2 61 38.1 2.5 N | 0 4.8 N | 0 0.00 0.00 45.7 68.4
11/24/21 - 1700 58.2 51 39.7 1.7 NE | 50 5.4 W | 281 0.00 0.00 45.7 68.4
11/24/21 - 1600 66.6 31 35.0 2.9 S | 178 5.8 SSW | 197 0.00 0.00 45.7 68.4
11/24/21 - 1500 67.5 27 32.3 3.4 SSE | 168 6.4 SE | 146 0.00 0.00 45.7 68.2
11/24/21 - 1400 65.9 29 32.8 3.4 SSE | 165 7.4 S | 190 0.00 0.00 45.7 67.5
11/24/21 - 1300 64.0 31 32.8 2.8 S | 170 5.8 SSW | 196 0.00 0.00 45.7 65.1
11/24/21 - 1200 61.4 34 32.6 2.9 SSE | 153 8.4 SSE | 160 0.00 0.00 45.7 62.9
11/24/21 - 1100 59.5 37 33.4 2.9 SSE | 159 7.1 SE | 134 0.00 0.00 45.7 60.7
11/24/21 - 1000 56.1 39 31.5 1.9 SSE | 149 5.8 ESE | 107 0.00 0.00 45.7 58.9
11/24/21 - 0900 51.7 44 30.6 1.6 SE | 146 6.1 ENE | 57 0.00 0.00 45.7 58.9
11/24/21 - 0800 48.3 43 26.5 2.0 ESE | 119 11.1 N | 5 0.00 0.00 45.7 58.9
11/24/21 - 0700 55.2 25 20.0 7.7 N | 9 19.5 N | 3 0.00 0.00 54.4 58.9
11/24/21 - 0600 55.6 25 20.2 10.8 NNW | 348 23.5 NNW | 346 0.00 0.00 54.9 58.9
11/24/21 - 0500 56.2 23 18.8 10.6 N | 0 23.5 NNW | 347 0.00 0.00 54.9 58.9
11/24/21 - 0400 56.1 24 19.8 9.7 NNW | 335 20.5 NNW | 335 0.00 0.00 54.9 58.9
11/24/21 - 0300 57.0 24 20.4 10.9 NNW | 336 25.9 NNW | 344 0.00 0.00 56.6 58.9
11/24/21 - 0200 58.0 24 21.7 11.8 NNW | 333 20.9 NNW | 345 0.00 0.00 57.4 58.9
11/24/21 - 0100 58.1 24 22.0 9.6 NNW | 329 18.2 NNW | 343 0.00 0.00 57.6 58.9
Max 68.2 90 53.0 11.8 - 25.9 - 0.00 0.00 57.6 68.9
Avg 51.7 68 40.2 3.0 - 7.4 - 0.00 - - -
Min 34.1 23 18.8 0.0 - 0.0 - 0.00 0.00 33.2 39.9
Total - - - - - - - 0.00 - - -
Tip: Bookmark this page for easy future reference